Time;durP1;ratioP1;P1;durP2;ratioP2;P2;SDS_P1;SDS_P2;PMS_P1;PMS_P2;Temp;Humidity;BMP_temperature;BMP_pressure;BME280_temperature;BME280_humidity;BME280_pressure;Samples;Min_cycle;Max_cycle;Signal;HPM_P1;HPM_P2
2022/05/13 00:00:54;;;;;;;6.68;1.33;;;;;;;;;;5067653;28;20095;-57
2022/05/13 00:03:20;;;;;;;5.57;1.00;;;;;;;;;;5066526;28;20691;-55
2022/05/13 00:05:49;;;;;;;3.72;0.90;;;;;;;;;;5067528;28;20024;-55
2022/05/13 00:08:15;;;;;;;8.50;1.00;;;;;;;;;;5067513;28;20116;-56
2022/05/13 00:10:41;;;;;;;2.75;0.88;;;;;;;;;;5067714;28;20040;-57
2022/05/13 00:13:08;;;;;;;3.28;0.75;;;;;;;;;;5067747;28;20040;-57
2022/05/13 00:15:34;;;;;;;5.70;1.25;;;;;;;;;;5067868;28;20441;-57
2022/05/13 00:18:00;;;;;;;7.32;0.90;;;;;;;;;;5067390;28;20040;-58
2022/05/13 00:20:27;;;;;;;5.30;1.60;;;;;;;;;;5067406;28;20021;-58
2022/05/13 00:22:54;;;;;;;4.43;1.02;;;;;;;;;;5067705;28;20560;-57
2022/05/13 00:25:22;;;;;;;5.55;0.98;;;;;;;;;;5067513;28;20021;-57
2022/05/13 00:27:49;;;;;;;4.45;0.93;;;;;;;;;;5066694;28;20116;-58
2022/05/13 00:30:15;;;;;;;6.43;0.90;;;;;;;;;;5067777;28;20037;-58
2022/05/13 00:32:41;;;;;;;6.82;1.25;;;;;;;;;;5067033;28;20041;-57
2022/05/13 00:35:08;;;;;;;4.70;0.73;;;;;;;;;;5067232;28;20043;-57
2022/05/13 00:37:35;;;;;;;2.35;0.82;;;;;;;;;;5070119;28;20021;-57
2022/05/13 00:40:02;;;;;;;4.82;0.82;;;;;;;;;;5071589;28;20032;-56
2022/05/13 00:42:28;;;;;;;7.00;1.20;;;;;;;;;;5070861;28;20040;-58
2022/05/13 00:44:57;;;;;;;5.55;0.95;;;;;;;;;;5070756;28;20025;-58
2022/05/13 00:47:23;;;;;;;6.38;1.02;;;;;;;;;;5070693;28;20028;-56
2022/05/13 00:49:49;;;;;;;4.53;1.00;;;;;;;;;;5069353;28;20107;-58
2022/05/13 00:52:15;;;;;;;2.97;0.77;;;;;;;;;;5071123;28;20045;-57
2022/05/13 00:54:42;;;;;;;4.60;0.82;;;;;;;;;;5060167;28;20016;-57
2022/05/13 00:57:08;;;;;;;4.38;1.23;;;;;;;;;;5071093;28;20119;-57
2022/05/13 00:59:37;;;;;;;7.03;1.33;;;;;;;;;;5071092;28;20035;-56
2022/05/13 01:02:03;;;;;;;4.07;0.88;;;;;;;;;;5070787;28;20058;-57
2022/05/13 01:04:29;;;;;;;4.75;1.00;;;;;;;;;;5070463;28;20427;-57
2022/05/13 01:06:57;;;;;;;4.78;0.80;;;;;;;;;;5071172;28;20394;-58
2022/05/13 01:09:23;;;;;;;3.17;0.77;;;;;;;;;;5070526;28;20511;-56
2022/05/13 01:11:52;;;;;;;3.30;0.88;;;;;;;;;;5070355;28;20119;-58
2022/05/13 01:14:24;;;;;;;3.55;0.95;;;;;;;;;;5070722;28;20024;-58
2022/05/13 01:19:34;;;;;;;4.63;1.10;;;;;;;;;;5071121;28;20154;-58
2022/05/13 01:22:17;;;;;;;3.75;0.80;;;;;;;;;;5070920;28;20559;-58
2022/05/13 01:24:44;;;;;;;3.80;0.80;;;;;;;;;;5070431;28;20467;-57
2022/05/13 01:27:10;;;;;;;5.22;1.20;;;;;;;;;;5069975;28;20108;-57
2022/05/13 01:29:36;;;;;;;5.40;0.90;;;;;;;;;;5069967;28;20025;-57
2022/05/13 01:32:02;;;;;;;4.88;1.20;;;;;;;;;;5070449;28;20570;-58
2022/05/13 01:34:28;;;;;;;6.65;0.93;;;;;;;;;;5070059;28;20037;-58
2022/05/13 01:36:55;;;;;;;2.13;0.60;;;;;;;;;;5070750;28;20133;-57
2022/05/13 01:39:21;;;;;;;2.67;0.50;;;;;;;;;;5070112;28;20401;-58
2022/05/13 01:41:47;;;;;;;2.53;0.73;;;;;;;;;;5069840;28;20848;-57
2022/05/13 01:44:13;;;;;;;3.88;0.57;;;;;;;;;;5070411;28;20067;-58
2022/05/13 01:46:39;;;;;;;5.30;1.10;;;;;;;;;;5070136;28;20044;-58
2022/05/13 01:49:05;;;;;;;2.83;0.90;;;;;;;;;;5069344;28;20446;-58
2022/05/13 01:51:32;;;;;;;3.33;0.75;;;;;;;;;;5069491;28;20856;-58
2022/05/13 01:53:58;;;;;;;2.97;0.90;;;;;;;;;;5069151;28;20371;-57
2022/05/13 01:56:24;;;;;;;6.00;1.15;;;;;;;;;;5069452;28;20452;-59
2022/05/13 01:58:50;;;;;;;4.10;0.80;;;;;;;;;;5070456;28;20856;-57
2022/05/13 02:01:16;;;;;;;3.92;0.90;;;;;;;;;;5070037;28;20016;-58
2022/05/13 02:03:45;;;;;;;2.80;0.93;;;;;;;;;;5069958;28;20028;-57
2022/05/13 02:06:15;;;;;;;3.22;0.80;;;;;;;;;;5069569;28;20021;-57
2022/05/13 02:08:41;;;;;;;4.22;0.90;;;;;;;;;;5066390;28;20102;-57
2022/05/13 02:11:07;;;;;;;3.67;0.80;;;;;;;;;;5069206;28;20816;-58
2022/05/13 02:13:33;;;;;;;4.10;0.80;;;;;;;;;;5069202;28;20067;-58
2022/05/13 02:15:59;;;;;;;4.05;0.77;;;;;;;;;;5069508;28;20064;-58
2022/05/13 02:18:25;;;;;;;4.20;1.20;;;;;;;;;;5068267;28;20044;-58
2022/05/13 02:20:51;;;;;;;4.47;0.80;;;;;;;;;;5069234;28;20424;-56
2022/05/13 02:23:20;;;;;;;3.25;1.08;;;;;;;;;;5068738;28;20052;-57
2022/05/13 02:25:47;;;;;;;2.80;0.60;;;;;;;;;;5069346;28;20032;-57
2022/05/13 02:28:13;;;;;;;3.35;0.63;;;;;;;;;;5069129;28;20126;-55
2022/05/13 02:30:39;;;;;;;2.88;0.88;;;;;;;;;;5069485;28;20111;-56
2022/05/13 02:33:05;;;;;;;3.67;0.88;;;;;;;;;;5069108;28;20165;-55
2022/05/13 02:35:31;;;;;;;3.17;0.95;;;;;;;;;;5069048;28;20575;-58
2022/05/13 02:37:57;;;;;;;2.90;0.90;;;;;;;;;;5069206;28;20449;-56
2022/05/13 02:41:11;;;;;;;2.22;0.60;;;;;;;;;;5068283;28;20522;-56
2022/05/13 02:43:09;;;;;;;4.30;0.77;;;;;;;;;;5069035;28;20035;-58
2022/05/13 02:45:35;;;;;;;5.97;0.75;;;;;;;;;;5069360;28;20067;-57
2022/05/13 02:48:01;;;;;;;4.32;0.75;;;;;;;;;;5068912;28;20024;-58
2022/05/13 02:50:27;;;;;;;3.15;0.57;;;;;;;;;;5068260;28;20854;-58
2022/05/13 02:52:53;;;;;;;2.58;0.60;;;;;;;;;;5068703;28;20098;-58
2022/05/13 02:55:19;;;;;;;4.22;1.10;;;;;;;;;;5068468;28;20525;-57
2022/05/13 02:57:46;;;;;;;4.78;0.60;;;;;;;;;;5069342;28;20059;-58
2022/05/13 03:00:12;;;;;;;5.18;0.98;;;;;;;;;;5068673;28;20095;-57
2022/05/13 03:02:38;;;;;;;3.55;0.70;;;;;;;;;;5068626;28;20170;-58
2022/05/13 03:05:04;;;;;;;4.78;0.82;;;;;;;;;;5068273;28;20020;-58
2022/05/13 03:07:30;;;;;;;3.70;0.75;;;;;;;;;;5068906;28;20038;-57
2022/05/13 03:09:56;;;;;;;8.18;1.95;;;;;;;;;;5068132;28;20461;-56
2022/05/13 03:12:23;;;;;;;3.03;0.60;;;;;;;;;;5068899;28;20145;-57
2022/05/13 03:14:49;;;;;;;2.95;0.90;;;;;;;;;;5068614;28;20088;-57
2022/05/13 03:17:15;;;;;;;2.20;0.93;;;;;;;;;;5068550;28;20070;-57
2022/05/13 03:19:41;;;;;;;2.53;0.60;;;;;;;;;;5068190;28;20103;-56
2022/05/13 03:22:07;;;;;;;4.05;1.05;;;;;;;;;;5068607;28;20144;-58
2022/05/13 03:24:34;;;;;;;3.47;1.10;;;;;;;;;;5067832;28;20024;-58
2022/05/13 03:27:01;;;;;;;2.95;0.80;;;;;;;;;;5068548;28;20183;-57
2022/05/13 03:29:27;;;;;;;4.97;1.00;;;;;;;;;;5068087;28;20073;-57
2022/05/13 03:31:54;;;;;;;2.33;0.60;;;;;;;;;;5068217;28;20123;-57
2022/05/13 03:34:21;;;;;;;2.80;0.65;;;;;;;;;;5067611;28;20123;-58
2022/05/13 03:36:51;;;;;;;3.38;1.10;;;;;;;;;;5068571;28;20035;-58
2022/05/13 03:39:17;;;;;;;3.67;0.90;;;;;;;;;;5067748;28;20020;-58
2022/05/13 03:41:43;;;;;;;2.05;0.65;;;;;;;;;;5068099;28;20032;-57
2022/05/13 03:44:10;;;;;;;4.78;1.13;;;;;;;;;;5068212;28;20024;-57
2022/05/13 03:46:37;;;;;;;2.97;0.95;;;;;;;;;;5067492;28;20025;-57
2022/05/13 03:49:03;;;;;;;3.50;0.70;;;;;;;;;;5067892;28;20067;-58
2022/05/13 03:51:29;;;;;;;3.15;0.80;;;;;;;;;;5066533;28;20029;-57
2022/05/13 03:53:55;;;;;;;3.25;0.80;;;;;;;;;;5068082;28;20040;-57
2022/05/13 03:56:21;;;;;;;3.05;0.85;;;;;;;;;;5066564;28;20047;-57
2022/05/13 03:58:47;;;;;;;3.47;0.70;;;;;;;;;;5066864;28;20033;-57
2022/05/13 04:01:13;;;;;;;4.80;0.95;;;;;;;;;;5066350;28;20016;-58
2022/05/13 04:03:39;;;;;;;4.30;1.13;;;;;;;;;;5065428;28;20769;-58
2022/05/13 04:08:56;;;;;;;2.58;0.70;;;;;;;;;;5066896;28;20095;-57
2022/05/13 04:11:23;;;;;;;2.22;0.73;;;;;;;;;;5067099;28;20025;-56
2022/05/13 04:16:34;;;;;;;2.20;0.70;;;;;;;;;;5071874;28;20501;-58
2022/05/13 04:19:00;;;;;;;3.95;1.13;;;;;;;;;;5071740;28;20072;-58
2022/05/13 04:21:32;;;;;;;4.00;1.08;;;;;;;;;;5072093;28;20052;-58
2022/05/13 04:24:00;;;;;;;3.17;0.73;;;;;;;;;;5071884;28;20024;-57
2022/05/13 04:26:26;;;;;;;3.63;1.10;;;;;;;;;;5071084;28;20618;-58
2022/05/13 04:28:53;;;;;;;3.53;1.25;;;;;;;;;;5072052;28;20021;-57
2022/05/13 04:31:20;;;;;;;3.78;1.15;;;;;;;;;;5071275;28;20475;-57
2022/05/13 04:33:47;;;;;;;3.90;1.00;;;;;;;;;;5071191;28;20063;-57
2022/05/13 04:36:13;;;;;;;6.05;1.15;;;;;;;;;;5071245;28;20589;-58
2022/05/13 04:38:39;;;;;;;2.63;0.70;;;;;;;;;;5070776;28;20100;-57
2022/05/13 04:43:51;;;;;;;3.60;1.08;;;;;;;;;;5068289;28;20057;-57
2022/05/13 04:46:17;;;;;;;4.20;1.10;;;;;;;;;;5071354;28;20104;-57
2022/05/13 04:48:44;;;;;;;4.05;1.08;;;;;;;;;;5070772;28;20032;-58
2022/05/13 04:51:10;;;;;;;4.30;1.00;;;;;;;;;;5071184;28;20102;-58
2022/05/13 04:53:37;;;;;;;3.65;1.02;;;;;;;;;;5070003;28;20055;-54
2022/05/13 04:56:04;;;;;;;2.13;0.85;;;;;;;;;;5071122;28;20029;-57
2022/05/13 04:58:30;;;;;;;3.08;1.08;;;;;;;;;;5070518;28;20028;-57
2022/05/13 05:00:57;;;;;;;2.15;0.85;;;;;;;;;;5070778;28;20035;-58
2022/05/13 05:03:27;;;;;;;3.78;1.58;;;;;;;;;;5069955;28;20760;-57
2022/05/13 05:05:53;;;;;;;5.07;1.40;;;;;;;;;;5070598;28;20060;-57
2022/05/13 05:08:19;;;;;;;6.68;1.20;;;;;;;;;;5068584;28;20759;-58
2022/05/13 05:10:45;;;;;;;5.28;2.10;;;;;;;;;;5069634;28;20044;-57
2022/05/13 05:13:19;;;;;;;10.80;2.88;;;;;;;;;;5069492;28;20048;-56
2022/05/13 05:15:45;;;;;;;13.50;3.45;;;;;;;;;;5069813;28;20074;-57
2022/05/13 05:18:12;;;;;;;15.90;3.00;;;;;;;;;;5069407;28;20036;-58
2022/05/13 05:20:39;;;;;;;15.52;4.97;;;;;;;;;;5069916;28;21087;-58
2022/05/13 05:23:05;;;;;;;16.08;4.72;;;;;;;;;;5067547;28;20405;-57
2022/05/13 05:25:31;;;;;;;19.70;5.57;;;;;;;;;;5069272;28;20036;-57
2022/05/13 05:27:57;;;;;;;19.40;5.88;;;;;;;;;;5069746;28;20115;-58
2022/05/13 05:30:24;;;;;;;15.70;5.65;;;;;;;;;;5069762;28;20142;-58
2022/05/13 05:32:50;;;;;;;13.98;5.00;;;;;;;;;;5069428;28;20566;-57
2022/05/13 05:35:17;;;;;;;17.85;5.97;;;;;;;;;;5069444;28;20024;-58
2022/05/13 05:37:43;;;;;;;19.90;5.80;;;;;;;;;;5069653;28;20048;-57
2022/05/13 05:40:10;;;;;;;14.60;5.20;;;;;;;;;;5068716;28;20113;-58
2022/05/13 05:42:37;;;;;;;19.42;5.97;;;;;;;;;;5069805;28;20037;-57
2022/05/13 05:45:03;;;;;;;13.85;5.55;;;;;;;;;;5069592;28;20016;-57
2022/05/13 05:47:29;;;;;;;19.65;5.30;;;;;;;;;;5070218;28;20483;-57
2022/05/13 05:49:55;;;;;;;16.70;5.70;;;;;;;;;;5069595;28;20115;-57
2022/05/13 05:52:21;;;;;;;19.42;6.80;;;;;;;;;;5069118;28;20127;-56
2022/05/13 05:57:31;;;;;;;19.60;7.07;;;;;;;;;;5069483;28;20039;-57
2022/05/13 05:59:58;;;;;;;21.92;6.28;;;;;;;;;;5069664;28;20016;-57
2022/05/13 06:02:24;;;;;;;17.25;6.50;;;;;;;;;;5070098;28;20086;-57
2022/05/13 06:04:50;;;;;;;14.82;5.55;;;;;;;;;;5069911;28;20035;-56
2022/05/13 06:07:17;;;;;;;15.15;5.88;;;;;;;;;;5069005;28;20490;-58
2022/05/13 06:09:44;;;;;;;15.30;6.07;;;;;;;;;;5068431;28;20070;-57
2022/05/13 06:12:13;;;;;;;16.42;5.80;;;;;;;;;;5068711;28;20032;-58
2022/05/13 06:14:39;;;;;;;14.43;5.53;;;;;;;;;;5068598;28;20043;-55
2022/05/13 06:17:06;;;;;;;19.45;6.00;;;;;;;;;;5068458;28;20024;-57
2022/05/13 06:19:32;;;;;;;19.70;5.90;;;;;;;;;;5065391;28;20026;-58
2022/05/13 06:21:58;;;;;;;20.02;6.20;;;;;;;;;;5067968;28;20111;-56
2022/05/13 06:24:24;;;;;;;19.17;5.55;;;;;;;;;;5069244;28;20039;-56
2022/05/13 06:26:51;;;;;;;22.00;6.10;;;;;;;;;;5069142;28;20025;-58
2022/05/13 06:29:18;;;;;;;14.30;4.80;;;;;;;;;;5069590;28;20036;-58
2022/05/13 06:31:45;;;;;;;15.18;5.32;;;;;;;;;;5068852;28;20040;-57
2022/05/13 06:34:12;;;;;;;18.45;5.55;;;;;;;;;;5068867;28;20455;-57
2022/05/13 06:36:39;;;;;;;19.92;5.65;;;;;;;;;;5069437;28;20108;-57
2022/05/13 06:39:06;;;;;;;17.98;6.03;;;;;;;;;;5068165;28;20123;-57
2022/05/13 06:41:37;;;;;;;21.63;5.97;;;;;;;;;;5069104;28;20037;-58
2022/05/13 06:44:04;;;;;;;18.23;5.53;;;;;;;;;;5068983;28;20036;-57
2022/05/13 06:46:30;;;;;;;18.65;5.95;;;;;;;;;;5066921;28;20566;-58
2022/05/13 06:48:58;;;;;;;16.80;5.57;;;;;;;;;;5066881;28;20198;-56
2022/05/13 06:51:24;;;;;;;17.27;5.93;;;;;;;;;;5068226;28;20544;-58
2022/05/13 06:53:50;;;;;;;20.80;6.45;;;;;;;;;;5066692;28;20559;-57
2022/05/13 06:56:16;;;;;;;17.67;5.57;;;;;;;;;;5068179;28;20048;-58
2022/05/13 06:58:42;;;;;;;12.52;5.05;;;;;;;;;;5068559;28;20052;-58
2022/05/13 07:01:08;;;;;;;24.15;5.18;;;;;;;;;;5068258;28;20060;-58
2022/05/13 07:03:34;;;;;;;16.92;5.00;;;;;;;;;;5068069;28;20105;-57
2022/05/13 07:06:00;;;;;;;15.68;5.60;;;;;;;;;;5067617;28;20444;-58
2022/05/13 07:08:26;;;;;;;22.15;5.28;;;;;;;;;;5067035;28;20687;-58
2022/05/13 07:10:53;;;;;;;15.27;4.63;;;;;;;;;;5066995;28;20028;-58
2022/05/13 07:13:20;;;;;;;12.98;5.03;;;;;;;;;;5066908;28;20048;-60
2022/05/13 07:15:46;;;;;;;21.40;6.28;;;;;;;;;;5067214;28;20466;-58
2022/05/13 07:18:13;;;;;;;20.77;5.20;;;;;;;;;;5066935;28;20032;-58
2022/05/13 07:20:39;;;;;;;16.88;4.43;;;;;;;;;;5068396;28;20391;-55
2022/05/13 07:23:05;;;;;;;12.32;4.55;;;;;;;;;;5068141;28;20051;-56
2022/05/13 07:25:31;;;;;;;25.25;5.57;;;;;;;;;;5068193;28;20032;-58
2022/05/13 07:27:57;;;;;;;14.75;4.28;;;;;;;;;;5068307;28;20044;-58
2022/05/13 07:30:23;;;;;;;13.13;4.25;;;;;;;;;;5067623;28;20017;-55
2022/05/13 07:32:49;;;;;;;16.13;5.07;;;;;;;;;;5067153;28;20087;-59
2022/05/13 07:35:16;;;;;;;14.35;5.03;;;;;;;;;;5067411;28;20041;-58
2022/05/13 07:37:42;;;;;;;12.15;4.00;;;;;;;;;;5066809;28;20091;-58
2022/05/13 07:42:53;;;;;;;11.82;4.03;;;;;;;;;;5066574;28;20100;-57
2022/05/13 07:45:19;;;;;;;12.27;3.85;;;;;;;;;;5067034;28;20025;-57
2022/05/13 07:47:45;;;;;;;11.35;3.90;;;;;;;;;;5067255;28;20105;-56
2022/05/13 07:50:12;;;;;;;15.88;4.45;;;;;;;;;;5067368;28;20029;-57
2022/05/13 07:52:40;;;;;;;13.48;4.60;;;;;;;;;;5067086;28;20036;-58
2022/05/13 07:55:07;;;;;;;9.68;3.65;;;;;;;;;;5066497;28;20483;-57
2022/05/13 07:57:33;;;;;;;13.10;3.88;;;;;;;;;;5067028;28;20526;-56
2022/05/13 08:00:33;;;;;;;12.40;4.15;;;;;;;;;;5067170;28;20033;-58
2022/05/13 08:02:55;;;;;;;14.25;3.90;;;;;;;;;;5062700;28;20519;-58
2022/05/13 08:05:22;;;;;;;;;;;;;;;;;;5067058;28;20050;-56
2022/05/13 08:07:48;;;;;;;13.05;4.03;;;;;;;;;;5066680;28;19908;-57
2022/05/13 08:10:14;;;;;;;10.77;3.53;;;;;;;;;;5066068;28;20067;-57
2022/05/13 08:12:40;;;;;;;13.90;3.95;;;;;;;;;;5066505;28;20155;-57
2022/05/13 08:15:08;;;;;;;10.40;3.28;;;;;;;;;;5066472;28;20074;-57
2022/05/13 08:17:34;;;;;;;11.20;4.43;;;;;;;;;;5066910;28;20023;-57
2022/05/13 08:20:00;;;;;;;8.90;3.30;;;;;;;;;;5066867;28;20132;-57
2022/05/13 08:22:26;;;;;;;10.35;3.58;;;;;;;;;;5067451;28;20024;-57
2022/05/13 08:24:52;;;;;;;14.65;3.67;;;;;;;;;;5067135;28;20510;-56
2022/05/13 08:27:18;;;;;;;15.30;4.13;;;;;;;;;;5067592;28;20119;-57
2022/05/13 08:29:44;;;;;;;9.73;3.38;;;;;;;;;;5067433;28;20116;-57
2022/05/13 08:32:10;;;;;;;12.25;3.97;;;;;;;;;;5068098;28;20542;-57
2022/05/13 08:34:37;;;;;;;11.38;3.80;;;;;;;;;;5066602;28;20124;-58
2022/05/13 08:37:04;;;;;;;13.23;3.38;;;;;;;;;;5066254;28;20021;-54
2022/05/13 08:39:29;;;;;;;13.05;4.35;;;;;;;;;;5067022;28;20056;-57
2022/05/13 08:42:06;;;;;;;16.25;3.00;;;;;;;;;;5067277;28;20062;-57
2022/05/13 08:44:32;;;;;;;8.77;2.92;;;;;;;;;;5063704;28;20029;-57
2022/05/13 08:47:04;;;;;;;16.77;3.92;;;;;;;;;;5066536;28;20031;-58
2022/05/13 08:49:44;;;;;;;13.38;3.17;;;;;;;;;;5066333;28;20051;-57
2022/05/13 08:55:08;;;;;;;13.88;3.47;;;;;;;;;;5066820;28;20402;-57
2022/05/13 08:57:38;;;;;;;10.73;2.78;;;;;;;;;;5067637;28;20025;-57
2022/05/13 09:00:07;;;;;;;10.43;3.20;;;;;;;;;;5070315;28;20021;-55
2022/05/13 09:02:38;;;;;;;11.00;2.88;;;;;;;;;;5072099;28;20111;-55
2022/05/13 09:05:22;;;;;;;10.35;2.92;;;;;;;;;;5085215;28;20031;-58
2022/05/13 09:07:51;;;;;;;12.68;2.78;;;;;;;;;;5068734;28;20062;-56
2022/05/13 09:10:17;;;;;;;11.48;3.33;;;;;;;;;;5069621;28;20052;-57
2022/05/13 09:12:51;;;;;;;10.85;2.92;;;;;;;;;;5069523;28;20037;-58
2022/05/13 09:15:23;;;;;;;7.30;2.30;;;;;;;;;;5082401;28;20453;-57
2022/05/13 09:18:06;;;;;;;10.75;3.13;;;;;;;;;;5078356;28;20530;-56
2022/05/13 09:20:47;;;;;;;14.32;2.88;;;;;;;;;;5086817;28;20375;-57
2022/05/13 09:23:14;;;;;;;12.82;3.10;;;;;;;;;;5067085;28;20051;-57
2022/05/13 09:25:53;;;;;;;11.73;3.13;;;;;;;;;;5070552;28;20029;-57
2022/05/13 09:28:20;;;;;;;11.10;2.50;;;;;;;;;;5066330;28;20044;-57
2022/05/13 09:30:47;;;;;;;15.75;2.97;;;;;;;;;;5073157;28;20055;-59
2022/05/13 09:33:32;;;;;;;8.45;2.50;;;;;;;;;;5070388;28;20116;-57
2022/05/13 09:36:00;;;;;;;10.75;2.40;;;;;;;;;;5070305;28;20478;-58
2022/05/13 09:38:28;;;;;;;14.20;3.65;;;;;;;;;;5069343;28;20032;-57
2022/05/13 09:40:58;;;;;;;13.55;3.33;;;;;;;;;;5072347;28;20509;-57
2022/05/13 09:43:42;;;;;;;10.38;2.35;;;;;;;;;;5077602;28;20032;-55
2022/05/13 09:46:12;;;;;;;15.10;2.60;;;;;;;;;;5084104;28;20069;-53
2022/05/13 09:48:53;;;;;;;17.05;3.05;;;;;;;;;;5071137;28;20132;-55
2022/05/13 09:51:25;;;;;;;10.73;2.33;;;;;;;;;;5077199;28;20024;-57
2022/05/13 09:54:11;;;;;;;18.58;2.58;;;;;;;;;;5074277;28;20509;-57
2022/05/13 09:56:47;;;;;;;14.95;2.70;;;;;;;;;;5086416;28;20052;-56
2022/05/13 09:59:20;;;;;;;11.77;2.72;;;;;;;;;;5071550;28;20501;-57
2022/05/13 10:01:47;;;;;;;8.80;2.17;;;;;;;;;;5081156;28;20022;-57
2022/05/13 10:04:14;;;;;;;13.48;2.25;;;;;;;;;;5070300;28;20115;-57
2022/05/13 10:06:41;;;;;;;8.48;1.95;;;;;;;;;;5085805;28;20099;-57
2022/05/13 10:15:10;;;;;;;17.45;2.72;;;;;;;;;;5070157;28;20394;-58
2022/05/13 10:17:40;;;;;;;12.00;2.20;;;;;;;;;;5077808;28;20076;-58
2022/05/13 10:20:09;;;;;;;10.50;1.98;;;;;;;;;;5069631;28;20087;-58
2022/05/13 10:22:35;;;;;;;20.27;2.15;;;;;;;;;;5069261;28;20132;-57
2022/05/13 10:25:21;;;;;;;18.63;2.53;;;;;;;;;;5077653;28;20441;-54
2022/05/13 10:27:50;;;;;;;12.30;2.45;;;;;;;;;;5070186;28;20111;-58
2022/05/13 10:30:26;;;;;;;11.52;2.03;;;;;;;;;;5068159;28;20112;-58
2022/05/13 10:33:16;;;;;;;12.10;1.85;;;;;;;;;;5068331;28;20037;-59
2022/05/13 10:35:42;;;;;;;;;;;;;;;;;;5058067;28;20037;-58
2022/05/13 10:38:11;;;;;;;17.73;2.95;;;;;;;;;;5082770;28;19912;-57
2022/05/13 10:40:38;;;;;;;11.27;2.15;;;;;;;;;;5067449;28;20039;-58
2022/05/13 10:43:23;;;;;;;11.48;1.50;;;;;;;;;;5068308;28;20035;-58
2022/05/13 10:45:52;;;;;;;13.55;2.38;;;;;;;;;;5070084;28;20020;-58
2022/05/13 10:48:31;;;;;;;17.15;2.50;;;;;;;;;;5068272;28;20024;-58
2022/05/13 10:50:57;;;;;;;20.83;4.57;;;;;;;;;;5067167;28;20097;-58
2022/05/13 10:53:39;;;;;;;18.15;4.60;;;;;;;;;;5066674;28;20029;-58
2022/05/13 10:56:17;;;;;;;13.85;2.17;;;;;;;;;;5064917;28;20545;-59
2022/05/13 10:58:46;;;;;;;12.90;2.20;;;;;;;;;;5065564;28;20836;-59
2022/05/13 11:01:15;;;;;;;11.20;2.08;;;;;;;;;;5066019;28;20107;-58
2022/05/13 11:03:41;;;;;;;9.50;2.22;;;;;;;;;;5066556;28;20043;-58
2022/05/13 11:06:10;;;;;;;8.60;2.08;;;;;;;;;;5066616;28;20119;-57
2022/05/13 11:08:45;;;;;;;12.88;1.80;;;;;;;;;;5067217;28;20202;-58
2022/05/13 11:11:30;;;;;;;9.18;1.67;;;;;;;;;;5067908;28;20082;-58
2022/05/13 11:14:04;;;;;;;5.00;1.30;;;;;;;;;;5068079;28;20083;-58
2022/05/13 11:16:49;;;;;;;5.05;1.60;;;;;;;;;;5066621;28;20831;-59
2022/05/13 11:19:27;;;;;;;9.23;2.30;;;;;;;;;;5067801;28;20119;-58
2022/05/13 11:22:11;;;;;;;14.05;2.58;;;;;;;;;;5068280;28;20040;-57
2022/05/13 11:27:36;;;;;;;14.27;1.80;;;;;;;;;;5066538;28;20028;-58
2022/05/13 11:30:11;;;;;;;11.55;1.88;;;;;;;;;;5066392;28;20099;-58
2022/05/13 11:32:42;;;;;;;10.10;1.55;;;;;;;;;;5065032;28;20039;-58
2022/05/13 11:35:08;;;;;;;9.95;1.80;;;;;;;;;;5067185;28;20379;-57
2022/05/13 11:37:38;;;;;;;8.30;2.13;;;;;;;;;;5066720;28;20031;-57
2022/05/13 11:40:07;;;;;;;7.85;1.30;;;;;;;;;;5068408;28;20838;-57
2022/05/13 11:45:50;;;;;;;13.02;1.90;;;;;;;;;;5058146;28;20241;-59
2022/05/13 11:48:19;;;;;;;14.15;2.05;;;;;;;;;;5066624;28;20102;-58
2022/05/13 11:50:45;;;;;;;10.40;1.55;;;;;;;;;;5068183;28;20116;-57
2022/05/13 11:53:11;;;;;;;7.72;2.17;;;;;;;;;;5067637;28;20052;-58
2022/05/13 11:55:45;;;;;;;10.82;2.05;;;;;;;;;;5067797;28;20029;-57
2022/05/13 11:58:30;;;;;;;7.75;1.42;;;;;;;;;;5067502;28;20032;-57
2022/05/13 12:00:56;;;;;;;10.52;1.98;;;;;;;;;;5066570;28;20078;-58
2022/05/13 12:03:22;;;;;;;6.97;1.33;;;;;;;;;;5068192;28;20421;-57
2022/05/13 12:06:02;;;;;;;3.90;1.48;;;;;;;;;;5068417;28;20052;-58
2022/05/13 12:08:31;;;;;;;;;;;;;;;;;;5068040;28;20040;-58
2022/05/13 12:11:17;;;;;;;7.07;1.50;;;;;;;;;;5067522;28;19908;-58
2022/05/13 12:13:46;;;;;;;7.70;1.30;;;;;;;;;;5066279;28;20109;-57
2022/05/13 12:16:21;;;;;;;8.85;1.27;;;;;;;;;;5067022;28;20090;-56
2022/05/13 12:18:54;;;;;;;7.65;1.33;;;;;;;;;;5067880;28;20025;-57
2022/05/13 12:21:22;;;;;;;8.02;1.35;;;;;;;;;;5067146;28;20025;-57
2022/05/13 12:24:13;;;;;;;7.68;1.58;;;;;;;;;;5067753;28;20435;-60
2022/05/13 12:27:07;;;;;;;7.18;1.42;;;;;;;;;;5062266;28;20487;-57
2022/05/13 12:29:39;;;;;;;7.65;1.38;;;;;;;;;;5066654;28;20402;-55
2022/05/13 12:32:05;;;;;;;8.70;1.35;;;;;;;;;;5067603;28;20151;-57
2022/05/13 12:37:43;;;;;;;5.35;1.42;;;;;;;;;;5071524;28;20046;-56
2022/05/13 12:40:32;;;;;;;11.93;1.35;;;;;;;;;;5070904;28;20494;-57
2022/05/13 12:43:22;;;;;;;10.38;1.40;;;;;;;;;;5068165;28;20142;-58
2022/05/13 12:46:03;;;;;;;8.07;1.57;;;;;;;;;;5050419;28;20028;-58
2022/05/13 12:48:29;;;;;;;8.88;1.42;;;;;;;;;;5071062;28;20471;-58
2022/05/13 12:51:04;;;;;;;7.15;1.30;;;;;;;;;;5071202;28;20429;-57
2022/05/13 12:53:30;;;;;;;9.68;1.30;;;;;;;;;;5068769;28;20062;-57
2022/05/13 12:55:57;;;;;;;6.18;1.08;;;;;;;;;;5069942;28;20024;-57
2022/05/13 12:58:24;;;;;;;7.10;1.20;;;;;;;;;;5069405;28;20025;-57
2022/05/13 13:00:52;;;;;;;8.20;1.98;;;;;;;;;;5068869;28;20532;-58
2022/05/13 13:03:19;;;;;;;8.52;1.65;;;;;;;;;;5071287;28;20492;-58
2022/05/13 13:05:51;;;;;;;10.82;1.42;;;;;;;;;;5072873;28;20024;-58
2022/05/13 13:08:22;;;;;;;6.22;1.30;;;;;;;;;;5076572;28;20024;-58
2022/05/13 13:10:54;;;;;;;5.80;1.13;;;;;;;;;;5073573;28;20066;-58
2022/05/13 13:13:27;;;;;;;4.78;1.20;;;;;;;;;;5078646;28;20067;-58
2022/05/13 13:15:57;;;;;;;8.32;1.20;;;;;;;;;;5070343;28;20103;-58
2022/05/13 13:18:30;;;;;;;8.88;1.25;;;;;;;;;;5079587;28;20393;-57
2022/05/13 13:20:58;;;;;;;7.30;1.08;;;;;;;;;;5080572;28;20032;-58
2022/05/13 13:23:26;;;;;;;4.32;0.82;;;;;;;;;;5071059;28;20060;-56
2022/05/13 13:25:52;;;;;;;8.25;1.10;;;;;;;;;;5071489;28;20020;-58
2022/05/13 13:28:26;;;;;;;5.18;1.30;;;;;;;;;;5079018;28;20028;-59
2022/05/13 13:30:55;;;;;;;6.30;1.17;;;;;;;;;;5072490;28;20029;-58
2022/05/13 13:33:21;;;;;;;4.55;1.15;;;;;;;;;;5070054;28;20032;-57
2022/05/13 13:35:47;;;;;;;7.13;0.90;;;;;;;;;;5070047;28;20056;-58
2022/05/13 13:38:15;;;;;;;4.28;0.93;;;;;;;;;;5070069;28;20470;-57
2022/05/13 13:40:43;;;;;;;5.65;1.10;;;;;;;;;;5070266;28;20023;-57
2022/05/13 13:43:21;;;;;;;6.65;1.10;;;;;;;;;;5069398;28;20399;-57
2022/05/13 13:45:52;;;;;;;3.75;1.02;;;;;;;;;;5071827;28;20136;-58
2022/05/13 13:48:27;;;;;;;3.22;0.88;;;;;;;;;;5069642;28;20490;-57
2022/05/13 13:50:53;;;;;;;7.28;1.20;;;;;;;;;;5066083;28;20399;-58
2022/05/13 13:53:24;;;;;;;3.83;1.30;;;;;;;;;;5068335;28;20040;-58
2022/05/13 13:55:51;;;;;;;9.18;0.90;;;;;;;;;;5070505;28;20035;-59
2022/05/13 13:58:36;;;;;;;9.63;1.42;;;;;;;;;;5078268;28;20053;-59
2022/05/13 14:01:17;;;;;;;6.32;1.25;;;;;;;;;;5074551;28;20048;-58
2022/05/13 14:03:45;;;;;;;7.38;1.20;;;;;;;;;;5064009;28;20037;-58
2022/05/13 14:06:19;;;;;;;4.03;0.90;;;;;;;;;;5066823;28;20035;-58
2022/05/13 14:08:53;;;;;;;7.53;1.60;;;;;;;;;;5070370;28;20147;-57
2022/05/13 14:11:21;;;;;;;8.90;1.50;;;;;;;;;;5076407;28;20021;-57
2022/05/13 14:13:49;;;;;;;13.50;1.48;;;;;;;;;;5073343;28;20040;-56
2022/05/13 14:16:17;;;;;;;12.73;1.60;;;;;;;;;;5072316;28;20032;-58
2022/05/13 14:18:44;;;;;;;11.00;1.67;;;;;;;;;;5068156;28;20114;-58
2022/05/13 14:21:16;;;;;;;11.75;1.85;;;;;;;;;;5048319;22;20058;-59
2022/05/13 14:23:43;;;;;;;9.32;1.98;;;;;;;;;;4988297;28;20125;-58
2022/05/13 14:26:10;;;;;;;11.57;1.83;;;;;;;;;;4991667;22;20411;-58
2022/05/13 14:28:49;;;;;;;11.55;1.50;;;;;;;;;;4963275;22;20061;-57
2022/05/13 14:31:22;;;;;;;6.93;1.65;;;;;;;;;;5022835;28;20446;-58
2022/05/13 14:33:51;;;;;;;6.57;1.60;;;;;;;;;;5030632;22;20148;-58
2022/05/13 14:36:18;;;;;;;13.00;2.25;;;;;;;;;;5020082;28;20051;-58
2022/05/13 14:41:31;;;;;;;7.32;1.80;;;;;;;;;;5020948;28;20040;-54
2022/05/13 14:43:58;;;;;;;6.63;1.80;;;;;;;;;;5021910;28;20057;-56
2022/05/13 14:46:26;;;;;;;8.43;2.03;;;;;;;;;;5033592;22;20717;-57
2022/05/13 14:48:52;;;;;;;7.40;2.00;;;;;;;;;;5006010;28;20052;-56
2022/05/13 14:51:19;;;;;;;5.65;1.75;;;;;;;;;;4990525;22;20034;-54
2022/05/13 14:53:51;;;;;;;9.90;1.45;;;;;;;;;;5028118;22;20061;-55
2022/05/13 14:56:17;;;;;;;7.57;1.58;;;;;;;;;;5044581;22;20054;-57
2022/05/13 14:58:50;;;;;;;7.63;1.75;;;;;;;;;;5008123;23;20050;-58
2022/05/13 15:03:59;;;;;;;6.70;2.20;;;;;;;;;;4993845;22;20044;-58
2022/05/13 15:06:28;;;;;;;8.25;2.28;;;;;;;;;;5030137;22;20066;-57
2022/05/13 15:09:13;;;;;;;8.50;2.80;;;;;;;;;;5016370;22;20152;-57
2022/05/13 15:11:39;;;;;;;6.18;2.45;;;;;;;;;;5068775;22;20119;-57
2022/05/13 15:14:06;;;;;;;12.02;2.97;;;;;;;;;;5079858;28;20033;-58
2022/05/13 15:16:32;;;;;;;6.60;2.20;;;;;;;;;;5015500;22;20122;-59
2022/05/13 15:18:59;;;;;;;9.60;2.58;;;;;;;;;;4926608;22;20159;-58
2022/05/13 15:21:25;;;;;;;9.07;2.42;;;;;;;;;;5096920;22;20116;-58
2022/05/13 15:23:51;;;;;;;14.02;2.63;;;;;;;;;;5093009;22;20517;-58
2022/05/13 15:26:22;;;;;;;9.88;2.70;;;;;;;;;;5085833;28;20115;-57
2022/05/13 15:28:48;;;;;;;8.77;3.13;;;;;;;;;;5099202;28;20021;-58